createdAt,value
2023-05-05T00:01:52.389Z,100877.67
2023-05-05T00:04:41.386Z,100878.64
2023-05-05T00:07:29.510Z,100878.45
2023-05-05T00:10:17.722Z,100879.39
2023-05-05T00:13:06.786Z,100877.65
2023-05-05T00:15:55.393Z,100890.98
2023-05-05T00:18:43.380Z,100883.95
2023-05-05T00:21:32.019Z,100885.20
2023-05-05T00:24:20.261Z,100891.88
2023-05-05T00:27:08.574Z,100897.46
2023-05-05T00:29:56.626Z,100897.69
2023-05-05T00:32:47.539Z,100898.58
2023-05-05T00:35:36.032Z,100900.86
2023-05-05T00:38:24.400Z,100896.12
2023-05-05T00:41:12.735Z,100897.60
2023-05-05T00:44:00.940Z,100903.41
2023-05-05T00:46:49.319Z,100909.49
2023-05-05T00:49:38.502Z,100907.10
2023-05-05T00:52:27.099Z,100912.61
2023-05-05T00:55:16.451Z,100910.81
2023-05-05T00:58:05.086Z,100906.91
2023-05-05T01:00:53.158Z,100905.43
2023-05-05T01:03:42.512Z,100906.19
2023-05-05T01:07:21.559Z,100911.66
2023-05-05T01:11:04.307Z,100909.39
2023-05-05T01:14:15.412Z,100905.91
2023-05-05T01:17:10.836Z,100907.31
2023-05-05T01:20:46.350Z,100916.24
2023-05-05T01:24:11.801Z,100909.39
2023-05-05T01:27:45.074Z,100914.48
2023-05-05T01:30:45.015Z,100914.55
2023-05-05T01:33:49.649Z,100912.77
2023-05-05T01:36:43.291Z,100910.81
2023-05-05T01:39:35.385Z,100914.62
2023-05-05T01:42:27.384Z,100920.61
2023-05-05T01:45:21.398Z,100916.08
2023-05-05T01:48:13.001Z,100910.20
2023-05-05T01:51:04.083Z,100903.26
2023-05-05T01:54:03.418Z,100907.48
2023-05-05T01:56:54.507Z,100910.80
2023-05-05T01:59:42.665Z,100906.99
2023-05-05T02:02:33.293Z,100908.05
2023-05-05T02:05:23.586Z,100906.46
2023-05-05T02:08:13.088Z,100907.94
2023-05-05T02:11:01.506Z,100906.91
2023-05-05T02:13:51.175Z,100907.56
2023-05-05T02:16:42.657Z,100905.02
2023-05-05T02:19:39.050Z,100907.35
2023-05-05T02:22:28.194Z,100903.44
2023-05-05T02:25:18.104Z,100905.93
2023-05-05T02:28:15.564Z,100909.92
2023-05-05T02:31:07.275Z,100908.36
2023-05-05T02:33:58.440Z,100906.12
2023-05-05T02:36:51.810Z,100907.33
2023-05-05T02:40:20.879Z,100908.08
2023-05-05T02:43:11.387Z,100911.48
2023-05-05T02:45:58.448Z,100909.52
2023-05-05T02:48:45.957Z,100913.16
2023-05-05T02:51:33.100Z,100910.46
2023-05-05T02:54:22.824Z,100908.29
2023-05-05T02:57:15.847Z,100909.86
2023-05-05T03:00:18.799Z,100914.67
2023-05-05T03:04:06.546Z,100921.60
2023-05-05T03:07:08.472Z,100917.00
2023-05-05T03:10:09.259Z,100915.48
2023-05-05T03:13:06.664Z,100923.52
2023-05-05T03:16:04.239Z,100927.21
2023-05-05T03:19:04.994Z,100923.17
2023-05-05T03:21:56.456Z,100922.38
2023-05-05T03:24:51.004Z,100929.20
2023-05-05T03:27:38.992Z,100931.83
2023-05-05T03:30:26.018Z,100929.56
2023-05-05T03:33:12.807Z,100938.18
2023-05-05T03:36:10.555Z,100938.20
2023-05-05T03:39:00.278Z,100939.02
2023-05-05T03:41:53.472Z,100938.40
2023-05-05T03:44:41.171Z,100939.29
2023-05-05T03:47:29.008Z,100937.42
2023-05-05T03:50:17.833Z,100943.77
2023-05-05T03:53:04.765Z,100945.51
2023-05-05T03:55:52.463Z,100942.52
2023-05-05T03:58:39.262Z,100946.36
2023-05-05T04:01:29.383Z,100948.59
2023-05-05T04:04:17.080Z,100954.85
2023-05-05T04:07:03.949Z,100954.54
2023-05-05T04:09:51.323Z,100958.88
2023-05-05T04:12:39.795Z,100962.09
2023-05-05T04:15:27.258Z,100961.17
2023-05-05T04:18:14.975Z,100961.23
2023-05-05T04:21:02.015Z,100955.75
2023-05-05T04:23:49.448Z,100963.25
2023-05-05T04:26:36.749Z,100968.31
2023-05-05T04:29:23.327Z,100969.33
2023-05-05T04:32:10.288Z,100971.08
2023-05-05T04:34:57.529Z,100978.38
2023-05-05T04:37:44.581Z,100977.27
2023-05-05T04:40:31.954Z,100983.17
2023-05-05T04:43:19.690Z,100989.06
2023-05-05T04:46:06.950Z,100989.91
2023-05-05T04:48:55.516Z,100998.38
2023-05-05T04:51:42.407Z,100996.05
2023-05-05T04:54:29.253Z,100994.12
2023-05-05T04:57:16.244Z,100998.14
2023-05-05T05:00:04.912Z,101002.34
2023-05-05T05:02:52.820Z,101004.03
2023-05-05T05:05:40.224Z,101010.51
2023-05-05T05:08:28.012Z,101010.67
2023-05-05T05:11:14.657Z,101015.11
2023-05-05T05:14:04.851Z,101016.61
2023-05-05T05:16:53.293Z,101024.11
2023-05-05T05:19:45.337Z,101022.19
2023-05-05T05:22:32.257Z,101015.64
2023-05-05T05:25:19.296Z,101020.27
2023-05-05T05:28:10.618Z,101021.13
2023-05-05T05:31:06.505Z,101023.63
2023-05-05T05:33:53.663Z,101021.76
2023-05-05T05:36:40.903Z,101027.46
2023-05-05T05:39:27.788Z,101028.20
2023-05-05T05:42:14.599Z,101025.58
2023-05-05T05:45:02.434Z,101025.08
2023-05-05T05:47:50.567Z,101023.86
2023-05-05T05:50:41.138Z,101025.33
2023-05-05T05:53:28.013Z,101026.20
2023-05-05T05:56:14.943Z,101025.58
2023-05-05T05:59:07.695Z,101024.94
2023-05-05T06:02:22.275Z,101023.19
2023-05-05T06:05:15.189Z,101024.66
2023-05-05T06:08:18.458Z,101018.10
2023-05-05T06:11:08.052Z,101019.65
2023-05-05T06:13:54.867Z,101018.20
2023-05-05T06:16:43.809Z,101024.99
2023-05-05T06:19:33.896Z,101025.69
2023-05-05T06:22:23.481Z,101028.21
2023-05-05T06:25:10.645Z,101028.59
2023-05-05T06:27:58.300Z,101032.73
2023-05-05T06:30:51.671Z,101039.31
2023-05-05T06:33:38.344Z,101038.95
2023-05-05T06:36:34.657Z,101038.45
2023-05-05T06:39:24.955Z,101040.08
2023-05-05T06:42:11.372Z,101044.09
2023-05-05T06:45:00.287Z,101047.55
2023-05-05T06:47:47.189Z,101047.54
2023-05-05T06:50:35.291Z,101047.20
2023-05-05T06:53:21.914Z,101041.83
2023-05-05T06:56:08.584Z,101043.81
2023-05-05T06:58:55.400Z,101042.30
2023-05-05T07:01:45.768Z,101042.09
2023-05-05T07:04:33.160Z,101037.73
2023-05-05T07:07:20.530Z,101040.70
2023-05-05T07:10:09.073Z,101040.67
2023-05-05T07:12:56.722Z,101040.50
2023-05-05T07:15:45.799Z,101041.52
2023-05-05T07:18:32.608Z,101039.45
2023-05-05T07:21:18.788Z,101039.73
2023-05-05T07:24:06.932Z,101041.14
2023-05-05T07:26:53.890Z,101030.73
2023-05-05T07:29:40.524Z,101039.23
2023-05-05T07:32:27.160Z,101039.50
2023-05-05T07:35:13.968Z,101045.02
2023-05-05T07:38:00.898Z,101053.09
2023-05-05T07:40:47.669Z,101050.77
2023-05-05T07:43:39.349Z,101045.55
2023-05-05T07:46:28.558Z,101044.46
2023-05-05T07:49:15.751Z,101047.64
2023-05-05T07:52:03.230Z,101046.00
2023-05-05T07:54:53.054Z,101049.19
2023-05-05T07:57:39.684Z,101052.77
2023-05-05T08:00:26.232Z,101057.17
2023-05-05T08:03:12.953Z,101060.20
2023-05-05T08:06:15.341Z,101060.27
2023-05-05T08:09:02.498Z,101058.44
2023-05-05T08:11:48.941Z,101065.61
2023-05-05T08:14:36.291Z,101061.71
2023-05-05T08:17:25.238Z,101064.35
2023-05-05T08:20:12.614Z,101059.86
2023-05-05T08:23:00.175Z,101062.80
2023-05-05T08:25:50.379Z,101069.21
2023-05-05T08:28:36.793Z,101071.39
2023-05-05T08:31:23.426Z,101070.30
2023-05-05T08:34:10.237Z,101069.92
2023-05-05T08:36:56.751Z,101065.72
2023-05-05T08:39:43.150Z,101068.92
2023-05-05T08:42:37.211Z,101065.70
2023-05-05T08:45:27.546Z,101063.09
2023-05-05T08:48:19.428Z,101066.17
2023-05-05T08:51:07.691Z,101063.66
2023-05-05T08:53:55.394Z,101069.41
2023-05-05T08:56:46.458Z,101063.00
2023-05-05T08:59:34.771Z,101062.71
2023-05-05T09:02:23.268Z,101077.21
2023-05-05T09:05:10.032Z,101081.39
2023-05-05T09:07:57.114Z,101079.06
2023-05-05T09:10:45.206Z,101079.47
2023-05-05T09:13:32.296Z,101081.77
2023-05-05T09:16:18.795Z,101080.28
2023-05-05T09:19:05.382Z,101084.70
2023-05-05T09:21:51.957Z,101089.95
2023-05-05T09:24:54.133Z,101093.28
2023-05-05T09:27:47.764Z,101093.29
2023-05-05T09:30:35.379Z,101096.58
2023-05-05T09:33:31.674Z,101094.58
2023-05-05T09:36:18.017Z,101092.27
2023-05-05T09:39:05.828Z,101094.64
2023-05-05T09:41:55.172Z,101085.72
2023-05-05T09:44:45.169Z,101087.14
2023-05-05T09:47:37.297Z,101102.63
2023-05-05T09:50:23.781Z,101092.73
2023-05-05T09:53:12.329Z,101086.86
2023-05-05T09:56:00.653Z,101090.48
2023-05-05T09:58:47.248Z,101092.92
2023-05-05T10:01:34.340Z,101091.84
2023-05-05T10:04:29.365Z,101092.17
2023-05-05T10:07:23.875Z,101092.19
2023-05-05T10:10:17.200Z,101086.23
2023-05-05T10:13:03.972Z,101092.29
2023-05-05T10:15:54.282Z,101089.70
2023-05-05T10:18:45.927Z,101093.41
2023-05-05T10:21:40.896Z,101098.40
2023-05-05T10:24:50.304Z,101095.31
2023-05-05T10:27:53.183Z,101100.57
2023-05-05T10:30:43.688Z,101097.55
2023-05-05T10:34:06.199Z,101091.97
2023-05-05T10:36:55.788Z,101098.44
2023-05-05T10:39:45.099Z,101098.90
2023-05-05T10:42:32.194Z,101094.55
2023-05-05T10:45:19.200Z,101084.70
2023-05-05T10:48:18.245Z,101087.27
2023-05-05T10:51:38.369Z,101085.88
2023-05-05T10:55:04.050Z,101085.20
2023-05-05T10:57:53.168Z,101088.16
2023-05-05T11:00:40.847Z,101085.23
2023-05-05T11:03:29.617Z,101087.07
2023-05-05T11:06:20.584Z,101083.06
2023-05-05T11:09:28.828Z,101081.05
2023-05-05T11:12:17.361Z,101077.80
2023-05-05T11:15:31.150Z,101076.31
2023-05-05T11:18:45.008Z,101074.55
2023-05-05T11:21:59.902Z,101072.29
2023-05-05T11:24:48.576Z,101067.78
2023-05-05T11:28:30.797Z,101069.52
2023-05-05T11:31:18.941Z,101064.36
2023-05-05T11:34:27.973Z,101063.92
2023-05-05T11:40:46.583Z,101068.16
2023-05-05T11:43:36.878Z,101067.85
2023-05-05T11:46:25.306Z,101069.65
2023-05-05T11:49:26.357Z,101077.18
2023-05-05T11:52:14.522Z,101076.55
2023-05-05T11:55:01.592Z,101077.83
2023-05-05T11:57:50.115Z,101077.55
2023-05-05T12:00:37.175Z,101080.73
2023-05-05T12:03:23.822Z,101083.35
2023-05-05T12:06:10.714Z,101081.94
2023-05-05T12:08:57.038Z,101082.41
2023-05-05T12:11:58.381Z,101082.08
2023-05-05T12:14:52.576Z,101080.87
2023-05-05T12:17:44.170Z,101077.17
2023-05-05T12:20:33.006Z,101082.70
2023-05-05T12:23:20.048Z,101080.08
2023-05-05T12:26:07.581Z,101072.11
2023-05-05T12:28:56.207Z,101071.98
2023-05-05T12:31:42.883Z,101069.73
2023-05-05T12:34:32.003Z,101077.46
2023-05-05T12:37:20.046Z,101079.73
2023-05-05T12:40:27.544Z,101072.35
2023-05-05T12:43:33.313Z,101063.80
2023-05-05T12:46:20.000Z,101062.98
2023-05-05T12:49:09.453Z,101065.53
2023-05-05T12:51:56.763Z,101062.23
2023-05-05T12:54:59.179Z,101057.24
2023-05-05T12:58:01.460Z,101054.40
2023-05-05T13:01:08.453Z,101052.31
2023-05-05T13:04:09.122Z,101053.41
2023-05-05T13:07:17.225Z,101050.61
2023-05-05T13:10:10.226Z,101055.92
2023-05-05T13:12:58.009Z,101055.86
2023-05-05T13:15:44.637Z,101055.53
2023-05-05T13:18:31.684Z,101055.22
2023-05-05T13:21:18.905Z,101062.98
2023-05-05T13:24:20.741Z,101058.46
2023-05-05T13:27:10.337Z,101052.30
2023-05-05T13:29:58.716Z,101045.12
2023-05-05T13:32:45.235Z,101039.56
2023-05-05T13:35:32.372Z,101042.73
2023-05-05T13:38:19.446Z,101041.58
2023-05-05T13:41:06.936Z,101041.44
2023-05-05T13:43:53.789Z,101028.92
2023-05-05T13:46:44.941Z,101031.41
2023-05-05T13:49:31.762Z,101031.16
2023-05-05T13:52:18.823Z,101029.21
2023-05-05T13:55:06.988Z,101026.88
2023-05-05T13:57:54.393Z,101023.14
2023-05-05T14:00:42.437Z,101021.14
2023-05-05T14:03:30.502Z,101019.98
2023-05-05T14:06:19.128Z,101020.55
2023-05-05T14:09:07.346Z,101021.11
2023-05-05T14:11:54.511Z,101025.59
2023-05-05T14:14:41.811Z,101027.80
2023-05-05T14:17:28.706Z,101030.51
2023-05-05T14:20:15.645Z,101025.52
2023-05-05T14:23:02.969Z,101020.64
2023-05-05T14:25:49.908Z,101023.02
2023-05-05T14:28:36.891Z,101027.86
2023-05-05T14:31:23.633Z,101031.50
2023-05-05T14:34:10.178Z,101030.26
2023-05-05T14:36:57.168Z,101037.13
2023-05-05T14:39:43.747Z,101037.45
2023-05-05T14:42:32.765Z,101032.43
2023-05-05T14:45:19.433Z,101029.84
2023-05-05T14:48:06.666Z,101029.40
2023-05-05T14:50:53.465Z,101028.17
2023-05-05T14:53:40.270Z,101028.53
2023-05-05T14:56:27.788Z,101027.24
2023-05-05T14:59:15.618Z,101027.20
2023-05-05T15:02:03.549Z,101022.65
2023-05-05T15:04:52.528Z,101020.90
2023-05-05T15:07:41.383Z,101023.40
2023-05-05T15:10:28.767Z,101015.02
2023-05-05T15:13:16.838Z,101017.60
2023-05-05T15:16:04.347Z,101015.52
2023-05-05T15:25:38.980Z,101015.62
2023-05-05T15:28:25.974Z,101020.21
2023-05-05T15:31:13.032Z,101017.21
2023-05-05T15:34:01.040Z,101017.60
2023-05-05T15:36:50.503Z,101018.14
2023-05-05T15:39:37.690Z,101013.16
2023-05-05T15:42:25.051Z,101011.48
2023-05-05T15:45:12.259Z,101005.86
2023-05-05T15:47:59.588Z,101005.90
2023-05-05T15:50:46.713Z,101005.32
2023-05-05T15:53:34.249Z,101003.70
2023-05-05T15:56:22.074Z,101000.30
2023-05-05T15:59:08.845Z,100993.41
2023-05-05T16:01:55.796Z,100994.04
2023-05-05T16:04:44.358Z,100991.60
2023-05-05T16:07:31.475Z,100987.60
2023-05-05T16:10:19.818Z,100987.33
2023-05-05T16:13:07.078Z,100991.28
2023-05-05T16:15:53.977Z,100984.83
2023-05-05T16:18:40.811Z,100991.30
2023-05-05T16:21:28.811Z,100985.59
2023-05-05T16:24:16.254Z,100990.39
2023-05-05T16:27:03.797Z,100973.79
2023-05-05T16:29:51.198Z,100995.33
2023-05-05T16:32:38.181Z,100992.08
2023-05-05T16:35:25.467Z,100995.16
2023-05-05T16:38:13.172Z,100989.23
2023-05-05T16:41:00.296Z,100989.77
2023-05-05T16:43:47.804Z,100990.60
2023-05-05T16:46:39.469Z,100986.45
2023-05-05T16:49:26.730Z,100990.42
2023-05-05T16:52:14.181Z,100988.95
2023-05-05T16:55:04.202Z,100982.50
2023-05-05T16:57:51.102Z,100982.52
2023-05-05T17:00:38.512Z,100987.30
2023-05-05T17:03:27.370Z,100988.68
2023-05-05T17:06:15.538Z,100988.48
2023-05-05T17:09:03.380Z,100991.29
2023-05-05T17:11:52.857Z,100990.88
2023-05-05T17:14:41.498Z,100991.75
2023-05-05T17:17:28.755Z,100991.77
2023-05-05T17:20:16.145Z,100989.62
2023-05-05T17:23:03.221Z,100993.65
2023-05-05T17:26:00.103Z,100990.70
2023-05-05T17:28:47.232Z,100987.48
2023-05-05T17:31:34.253Z,100985.50
2023-05-05T17:34:22.286Z,100987.04
2023-05-05T17:37:10.696Z,100989.58
2023-05-05T17:39:58.161Z,100985.44
2023-05-05T17:42:45.068Z,100986.14
2023-05-05T17:45:32.486Z,100986.42
2023-05-05T17:48:19.810Z,100989.10
2023-05-05T17:51:07.890Z,100989.69
2023-05-05T17:53:57.379Z,100991.08
2023-05-05T17:56:45.172Z,100985.16
2023-05-05T17:59:32.223Z,100990.69
2023-05-05T18:02:21.440Z,100991.88
2023-05-05T18:05:10.219Z,100991.80
2023-05-05T18:07:56.919Z,100991.51
2023-05-05T18:10:45.029Z,100991.27
2023-05-05T18:13:32.388Z,100994.97
2023-05-05T18:16:19.440Z,100998.17
2023-05-05T18:19:06.731Z,100997.17
2023-05-05T18:21:55.173Z,100999.42
2023-05-05T18:24:42.394Z,100999.36
2023-05-05T18:27:32.101Z,100996.69
2023-05-05T18:30:19.093Z,100999.66
2023-05-05T18:33:07.707Z,101005.78
2023-05-05T18:35:57.851Z,101001.67
2023-05-05T18:38:47.836Z,101002.02
2023-05-05T18:41:35.381Z,100998.17
2023-05-05T18:44:22.479Z,100998.28
2023-05-05T18:47:09.592Z,100998.17
2023-05-05T18:49:56.761Z,100992.99
2023-05-05T18:52:43.937Z,100996.35
